createdAt,value
2018-03-26T00:01:15.878Z,2.50
2018-03-26T00:03:41.848Z,2.50
2018-03-26T00:06:07.843Z,2.60
2018-03-26T00:08:33.796Z,2.60
2018-03-26T00:10:59.749Z,2.60
2018-03-26T00:13:25.767Z,2.70
2018-03-26T00:15:51.731Z,2.70
2018-03-26T00:18:17.731Z,2.70
2018-03-26T00:20:43.685Z,2.80
2018-03-26T00:23:09.673Z,2.80
2018-03-26T00:25:36.402Z,2.90
2018-03-26T00:28:02.385Z,2.90
2018-03-26T00:30:28.365Z,2.90
2018-03-26T00:32:54.370Z,2.90
2018-03-26T00:35:20.343Z,2.90
2018-03-26T00:37:46.314Z,2.90
2018-03-26T00:40:13.045Z,3.00
2018-03-26T00:42:39.762Z,3.10
2018-03-26T00:45:05.756Z,3.10
2018-03-26T00:47:32.493Z,3.10
2018-03-26T00:49:58.450Z,3.10
2018-03-26T00:52:25.189Z,3.20
2018-03-26T00:54:51.929Z,3.30
2018-03-26T00:57:17.919Z,3.30
2018-03-26T00:59:43.873Z,3.30
2018-03-26T01:02:09.931Z,3.30
2018-03-26T01:04:35.925Z,3.40
2018-03-26T01:07:01.902Z,3.40
2018-03-26T01:09:27.895Z,3.40
2018-03-26T01:11:53.884Z,3.40
2018-03-26T01:14:19.882Z,3.50
2018-03-26T01:16:45.853Z,3.50
2018-03-26T01:19:11.864Z,3.50
2018-03-26T01:21:37.820Z,3.50
2018-03-26T01:24:03.781Z,3.50
2018-03-26T01:26:30.508Z,3.70
2018-03-26T01:28:56.536Z,3.60
2018-03-26T01:31:22.525Z,3.70
2018-03-26T01:33:48.505Z,3.70
2018-03-26T01:36:14.509Z,3.70
2018-03-26T01:38:40.474Z,3.80
2018-03-26T01:41:06.474Z,3.90
2018-03-26T01:43:32.417Z,3.70
2018-03-26T01:45:58.397Z,3.70
2018-03-26T01:48:24.349Z,3.80
2018-03-26T01:50:50.322Z,3.70
2018-03-26T01:53:16.320Z,3.80
2018-03-26T01:55:42.339Z,3.80
2018-03-26T01:58:08.334Z,3.80
2018-03-26T02:00:34.294Z,3.80
2018-03-26T02:03:00.277Z,3.90
2018-03-26T02:05:26.988Z,3.90
2018-03-26T02:07:52.965Z,3.90
2018-03-26T02:10:19.680Z,3.80
2018-03-26T02:12:45.636Z,3.80
2018-03-26T02:15:11.656Z,3.80
2018-03-26T02:17:37.635Z,3.80
2018-03-26T02:20:03.617Z,3.80
2018-03-26T02:22:29.584Z,3.70
2018-03-26T02:24:55.576Z,3.80
2018-03-26T02:27:21.552Z,3.80
2018-03-26T02:29:47.529Z,3.90
2018-03-26T02:32:13.486Z,3.80
2018-03-26T02:34:39.518Z,3.80
2018-03-26T02:37:05.501Z,3.80
2018-03-26T02:39:31.450Z,3.80
2018-03-26T02:41:58.163Z,3.80
2018-03-26T02:44:24.109Z,3.80
2018-03-26T02:46:50.102Z,3.90
2018-03-26T02:49:16.040Z,3.80
2018-03-26T02:51:42.060Z,3.80
2018-03-26T02:54:08.052Z,3.80
2018-03-26T02:56:34.019Z,3.80
2018-03-26T02:59:00.747Z,3.90
2018-03-26T03:01:26.753Z,3.90
2018-03-26T03:03:52.750Z,3.90
2018-03-26T03:06:19.451Z,4.00
2018-03-26T03:08:45.446Z,4.00
2018-03-26T03:11:12.183Z,3.90
2018-03-26T03:13:38.933Z,3.90
2018-03-26T03:16:05.629Z,3.90
2018-03-26T03:18:31.621Z,3.90
2018-03-26T03:20:58.308Z,3.90
2018-03-26T03:23:24.278Z,3.90
2018-03-26T03:25:50.281Z,3.90
2018-03-26T03:28:16.237Z,3.90
2018-03-26T03:30:42.223Z,3.90
2018-03-26T03:33:09.239Z,4.00
2018-03-26T03:35:35.164Z,4.00
2018-03-26T03:38:01.157Z,4.00
2018-03-26T03:40:27.860Z,3.90
2018-03-26T03:42:53.837Z,3.90
2018-03-26T03:45:20.563Z,3.90
2018-03-26T03:47:46.570Z,3.90
2018-03-26T03:50:12.526Z,3.90
2018-03-26T03:52:38.494Z,3.90
2018-03-26T03:55:05.221Z,3.90
2018-03-26T03:57:31.178Z,3.90
2018-03-26T03:59:57.169Z,3.90
2018-03-26T04:02:23.141Z,3.90
2018-03-26T04:04:49.123Z,3.90
2018-03-26T04:07:15.089Z,3.90
2018-03-26T04:09:41.105Z,4.00
2018-03-26T04:12:07.142Z,3.90
2018-03-26T04:14:33.105Z,3.90
2018-03-26T04:16:59.084Z,3.90
2018-03-26T04:19:25.774Z,3.90
2018-03-26T04:21:51.726Z,3.90
2018-03-26T04:24:17.712Z,3.90
2018-03-26T04:26:44.459Z,3.90
2018-03-26T04:29:11.265Z,4.00
2018-03-26T04:31:37.214Z,4.00
2018-03-26T04:34:03.198Z,4.00
2018-03-26T04:36:29.149Z,4.00
2018-03-26T04:38:55.876Z,3.90
2018-03-26T04:41:21.819Z,3.90
2018-03-26T04:43:48.565Z,4.00
2018-03-26T04:46:14.552Z,3.90
2018-03-26T04:48:40.532Z,4.00
2018-03-26T04:51:06.524Z,4.00
2018-03-26T04:53:32.482Z,4.00
2018-03-26T04:55:58.427Z,4.00
2018-03-26T04:58:24.421Z,4.00
2018-03-26T05:00:50.361Z,4.00
2018-03-26T05:03:16.317Z,4.00
2018-03-26T05:05:42.321Z,4.10
2018-03-26T05:08:08.309Z,4.00
2018-03-26T05:10:42.812Z,4.00
2018-03-26T05:13:08.818Z,4.00
2018-03-26T05:15:35.550Z,4.00
2018-03-26T05:18:01.513Z,4.00
2018-03-26T05:20:28.233Z,4.10
2018-03-26T05:22:54.221Z,4.00
2018-03-26T05:25:20.250Z,4.00
2018-03-26T05:27:46.199Z,4.00
2018-03-26T05:30:12.201Z,4.00
2018-03-26T05:32:38.200Z,4.10
2018-03-26T05:35:04.186Z,4.10
2018-03-26T05:37:30.142Z,4.10
2018-03-26T05:39:56.100Z,4.20
2018-03-26T05:42:22.102Z,4.10
2018-03-26T05:44:48.049Z,4.20
2018-03-26T05:47:14.017Z,4.20
2018-03-26T05:49:40.060Z,4.20
2018-03-26T05:52:06.016Z,4.30
2018-03-26T05:54:32.748Z,4.30
2018-03-26T05:56:58.746Z,4.30
2018-03-26T05:59:24.703Z,4.30
2018-03-26T06:01:50.686Z,4.30
2018-03-26T06:04:17.397Z,4.30
2018-03-26T06:06:43.404Z,4.30
2018-03-26T06:09:09.421Z,4.40
2018-03-26T06:11:35.421Z,4.40
2018-03-26T06:14:01.369Z,4.40
2018-03-26T06:16:27.367Z,4.40
2018-03-26T06:18:53.332Z,4.50
2018-03-26T06:21:19.294Z,4.50
2018-03-26T06:23:46.031Z,4.50
2018-03-26T06:26:12.021Z,4.50
2018-03-26T06:28:38.043Z,4.60
2018-03-26T06:31:04.050Z,4.60
2018-03-26T06:33:30.761Z,4.60
2018-03-26T06:35:56.714Z,4.50
2018-03-26T06:38:28.969Z,4.60
2018-03-26T06:40:54.951Z,4.60
2018-03-26T06:43:20.949Z,4.70
2018-03-26T06:45:46.952Z,4.70
2018-03-26T06:48:12.975Z,4.80
2018-03-26T06:50:39.718Z,4.70
2018-03-26T06:53:06.504Z,4.80
2018-03-26T06:55:32.465Z,4.70
2018-03-26T06:57:58.463Z,4.80
2018-03-26T07:00:25.180Z,4.90
2018-03-26T07:02:51.921Z,4.90
2018-03-26T07:05:17.898Z,4.90
2018-03-26T07:07:44.607Z,4.90
2018-03-26T07:10:10.630Z,4.80
2018-03-26T07:12:36.581Z,5.00
2018-03-26T07:15:02.595Z,5.00
2018-03-26T07:17:28.554Z,5.10
2018-03-26T07:19:55.282Z,5.20
2018-03-26T07:22:21.234Z,5.20
2018-03-26T07:24:47.218Z,5.30
2018-03-26T07:27:13.941Z,5.30
2018-03-26T07:29:39.940Z,5.30
2018-03-26T07:32:05.925Z,5.40
2018-03-26T07:34:31.886Z,5.50
2018-03-26T07:36:58.631Z,5.50
2018-03-26T07:39:25.337Z,5.40
2018-03-26T07:41:51.298Z,5.40
2018-03-26T07:44:17.293Z,5.50
2018-03-26T07:46:43.249Z,5.50
2018-03-26T07:49:09.291Z,5.50
2018-03-26T07:51:35.316Z,5.50
2018-03-26T07:54:01.312Z,5.60
2018-03-26T07:56:28.058Z,5.60
2018-03-26T07:58:54.773Z,5.60
2018-03-26T08:01:20.723Z,5.50
2018-03-26T08:03:46.733Z,5.60
2018-03-26T08:06:12.741Z,5.50
2018-03-26T08:08:38.870Z,5.60
2018-03-26T08:11:04.854Z,5.60
2018-03-26T08:13:30.857Z,5.60
2018-03-26T08:15:56.825Z,5.60
2018-03-26T08:18:22.816Z,5.60
2018-03-26T08:20:48.772Z,5.70
2018-03-26T08:23:14.770Z,5.80
2018-03-26T08:25:40.785Z,5.80
2018-03-26T08:28:06.785Z,5.90
2018-03-26T08:30:32.742Z,6.00
2018-03-26T08:32:58.739Z,6.10
2018-03-26T08:35:24.726Z,6.30
2018-03-26T08:37:50.732Z,6.40
2018-03-26T08:40:17.433Z,6.40
2018-03-26T08:42:43.389Z,6.40
2018-03-26T08:45:10.101Z,6.80
2018-03-26T08:47:36.082Z,6.90
2018-03-26T08:50:02.908Z,7.10
2018-03-26T08:52:28.789Z,7.10
2018-03-26T08:54:54.754Z,7.40
2018-03-26T08:57:20.734Z,7.60
2018-03-26T08:59:47.429Z,7.80
2018-03-26T09:02:13.422Z,7.80
2018-03-26T09:04:40.223Z,7.80
2018-03-26T09:07:06.197Z,7.80
2018-03-26T09:09:32.175Z,7.80
2018-03-26T09:11:58.223Z,8.00
2018-03-26T09:14:24.120Z,8.10
2018-03-26T09:16:50.849Z,8.60
2018-03-26T09:19:16.797Z,8.60
2018-03-26T09:21:43.542Z,9.00
2018-03-26T09:24:09.637Z,9.00
2018-03-26T09:26:35.581Z,9.10
2018-03-26T09:29:01.591Z,9.10
2018-03-26T09:31:27.582Z,9.30
2018-03-26T09:33:53.560Z,9.40
2018-03-26T09:36:19.497Z,9.40
2018-03-26T09:38:45.473Z,9.60
2018-03-26T09:41:11.510Z,9.60
2018-03-26T09:43:37.457Z,9.60
2018-03-26T09:46:03.465Z,9.60
2018-03-26T09:48:29.397Z,9.90
2018-03-26T09:50:55.392Z,9.90
2018-03-26T09:53:22.142Z,10.20
2018-03-26T09:55:48.065Z,10.20
2018-03-26T09:58:14.058Z,10.40
2018-03-26T10:00:46.250Z,10.30
2018-03-26T10:03:12.273Z,10.30
2018-03-26T10:05:38.246Z,10.20
2018-03-26T10:08:04.245Z,10.20
2018-03-26T10:10:30.221Z,10.60
2018-03-26T10:12:56.166Z,10.50
2018-03-26T10:15:22.144Z,10.60
2018-03-26T10:17:48.133Z,10.90
2018-03-26T10:20:14.103Z,10.90
2018-03-26T10:22:40.114Z,10.90
2018-03-26T10:25:06.811Z,10.30
2018-03-26T10:27:32.797Z,10.30
2018-03-26T10:29:58.746Z,10.50
2018-03-26T10:32:25.478Z,11.00
2018-03-26T10:34:51.474Z,11.00
2018-03-26T10:37:18.377Z,11.40
2018-03-26T10:39:44.325Z,11.50
2018-03-26T10:42:11.067Z,11.20
2018-03-26T10:44:37.053Z,11.20
2018-03-26T10:47:02.997Z,11.10
2018-03-26T10:49:28.973Z,11.20
2018-03-26T10:51:54.913Z,11.00
2018-03-26T10:54:20.895Z,10.90
2018-03-26T10:56:46.926Z,10.90
2018-03-26T10:59:13.601Z,11.10
2018-03-26T11:01:39.549Z,11.10
2018-03-26T11:04:05.533Z,11.20
2018-03-26T11:06:31.532Z,11.60
2018-03-26T11:08:57.497Z,11.60
2018-03-26T11:11:24.238Z,12.00
2018-03-26T11:13:50.960Z,11.70
2018-03-26T11:16:16.921Z,11.70
2018-03-26T11:18:42.901Z,11.40
2018-03-26T11:21:08.901Z,10.90
2018-03-26T11:23:35.626Z,10.50
2018-03-26T11:26:01.584Z,10.50
2018-03-26T11:28:27.618Z,10.30
2018-03-26T11:30:54.318Z,10.20
2018-03-26T11:33:20.273Z,10.20
2018-03-26T11:35:46.261Z,10.10
2018-03-26T11:38:12.962Z,10.10
2018-03-26T11:40:38.955Z,10.00
2018-03-26T11:43:05.641Z,10.10
2018-03-26T11:45:31.633Z,10.10
2018-03-26T11:47:58.364Z,10.40
2018-03-26T11:50:24.395Z,10.40
2018-03-26T11:52:51.854Z,10.10
2018-03-26T11:55:17.835Z,10.10
2018-03-26T11:57:44.535Z,10.10
2018-03-26T12:00:10.544Z,10.10
2018-03-26T12:02:36.489Z,10.30
2018-03-26T12:05:02.514Z,10.10
2018-03-26T12:07:28.641Z,10.10
2018-03-26T12:09:54.598Z,9.80
2018-03-26T12:12:20.601Z,9.60
2018-03-26T12:14:47.297Z,9.70
2018-03-26T12:17:13.997Z,9.70
2018-03-26T12:19:53.106Z,9.70
2018-03-26T12:22:19.061Z,9.70
2018-03-26T12:24:57.317Z,9.80
2018-03-26T12:27:24.057Z,9.60
2018-03-26T12:30:03.181Z,9.50
2018-03-26T12:32:29.196Z,9.50
2018-03-26T12:35:07.773Z,9.60
2018-03-26T12:37:34.489Z,9.90
2018-03-26T12:40:00.492Z,9.90
2018-03-26T12:42:26.478Z,10.00
2018-03-26T12:45:04.823Z,10.10
2018-03-26T12:47:31.522Z,10.00
2018-03-26T12:49:57.496Z,10.00
2018-03-26T12:52:36.059Z,9.90
2018-03-26T12:55:02.002Z,9.60
2018-03-26T12:57:40.422Z,9.70
2018-03-26T13:00:06.382Z,9.80
2018-03-26T13:02:32.467Z,9.70
2018-03-26T13:04:58.474Z,9.30
2018-03-26T13:07:24.465Z,9.40
2018-03-26T13:09:51.202Z,9.10
2018-03-26T13:12:18.006Z,9.10
2018-03-26T13:14:44.073Z,9.10
2018-03-26T13:17:10.030Z,9.30
2018-03-26T13:19:36.733Z,9.20
2018-03-26T13:22:02.706Z,9.10
2018-03-26T13:24:28.666Z,9.20
2018-03-26T13:27:02.368Z,9.20
2018-03-26T13:29:28.381Z,9.30
2018-03-26T13:31:54.332Z,9.00
2018-03-26T13:34:20.317Z,9.10
2018-03-26T13:36:46.316Z,8.90
2018-03-26T13:39:13.009Z,9.00
2018-03-26T13:41:38.953Z,8.90
2018-03-26T13:44:04.962Z,9.00
2018-03-26T13:46:30.928Z,9.10
2018-03-26T13:48:56.906Z,8.90
2018-03-26T13:51:23.651Z,9.10
2018-03-26T13:53:49.661Z,9.10
2018-03-26T13:56:15.621Z,9.00
2018-03-26T13:58:41.577Z,8.70
2018-03-26T14:01:08.316Z,8.60
2018-03-26T14:03:35.033Z,8.50
2018-03-26T14:06:01.019Z,8.50
2018-03-26T14:08:40.290Z,8.70
2018-03-26T14:11:18.757Z,8.60
2018-03-26T14:13:57.265Z,8.70
2018-03-26T14:16:35.693Z,8.60
2018-03-26T14:19:01.701Z,8.70
2018-03-26T14:21:28.417Z,8.40
2018-03-26T14:23:54.367Z,8.40
2018-03-26T14:26:20.352Z,8.40
2018-03-26T14:28:46.309Z,8.30
2018-03-26T14:31:12.295Z,8.40
2018-03-26T14:33:38.998Z,8.10
2018-03-26T14:36:05.002Z,8.10
2018-03-26T14:38:30.998Z,8.20
2018-03-26T14:40:57.009Z,8.10
2018-03-26T14:43:22.992Z,7.80
2018-03-26T14:45:49.691Z,7.90
2018-03-26T14:48:15.685Z,7.80
2018-03-26T14:50:42.417Z,7.70
2018-03-26T14:53:08.393Z,7.70
2018-03-26T14:55:34.377Z,7.80
2018-03-26T14:58:00.377Z,8.00
2018-03-26T15:00:26.330Z,7.80
2018-03-26T15:02:52.381Z,7.60
2018-03-26T15:05:18.312Z,7.50
2018-03-26T15:07:44.290Z,7.50
2018-03-26T15:10:10.980Z,7.60
2018-03-26T15:12:36.970Z,7.60
2018-03-26T15:15:03.673Z,7.50
2018-03-26T15:17:29.665Z,7.40
2018-03-26T15:19:56.405Z,7.60
2018-03-26T15:22:23.098Z,7.50
2018-03-26T15:24:49.087Z,7.50
2018-03-26T15:27:15.088Z,7.60
2018-03-26T15:29:41.043Z,7.80
2018-03-26T15:32:07.037Z,7.70
2018-03-26T15:34:32.980Z,7.70
2018-03-26T15:36:58.993Z,7.80
2018-03-26T15:39:25.681Z,7.40
2018-03-26T15:41:51.704Z,7.40
2018-03-26T15:44:17.701Z,7.50
2018-03-26T15:46:43.656Z,7.60
2018-03-26T15:49:10.385Z,7.80
2018-03-26T15:51:36.333Z,7.80
2018-03-26T15:54:03.021Z,7.60
2018-03-26T15:56:29.069Z,7.50
2018-03-26T15:58:55.053Z,7.60
2018-03-26T16:01:21.025Z,7.80
2018-03-26T16:03:46.971Z,7.70
2018-03-26T16:06:12.978Z,7.70
2018-03-26T16:08:39.682Z,7.80
2018-03-26T16:11:05.678Z,7.80
2018-03-26T16:13:31.689Z,7.70
2018-03-26T16:15:57.705Z,7.60
2018-03-26T16:18:23.669Z,7.60
2018-03-26T16:20:50.408Z,7.80
2018-03-26T16:23:16.362Z,7.70
2018-03-26T16:25:43.062Z,7.70
2018-03-26T16:28:09.059Z,7.60
2018-03-26T16:30:35.017Z,7.80
2018-03-26T16:33:00.974Z,7.70
2018-03-26T16:35:26.965Z,7.80
2018-03-26T16:37:52.926Z,7.80
2018-03-26T16:40:18.912Z,7.80
2018-03-26T16:42:44.893Z,7.80
2018-03-26T16:45:10.873Z,7.60
2018-03-26T16:47:37.607Z,7.50
2018-03-26T16:50:03.597Z,7.50
2018-03-26T16:52:30.343Z,7.40
2018-03-26T16:54:57.106Z,7.60
2018-03-26T16:57:23.089Z,7.50
2018-03-26T16:59:49.025Z,7.70
2018-03-26T17:02:14.989Z,7.60
2018-03-26T17:04:41.719Z,7.60
2018-03-26T17:07:07.712Z,7.60
2018-03-26T17:09:33.702Z,7.50
2018-03-26T17:11:59.759Z,7.50
2018-03-26T17:14:26.499Z,7.60
2018-03-26T17:16:52.488Z,7.60
2018-03-26T17:19:18.445Z,7.60
2018-03-26T17:21:44.426Z,7.50
2018-03-26T17:24:11.199Z,7.40
2018-03-26T17:26:37.177Z,7.40
2018-03-26T17:29:03.122Z,7.30
2018-03-26T17:31:29.205Z,7.40
2018-03-26T17:33:55.178Z,7.30
2018-03-26T17:36:21.174Z,7.20
2018-03-26T17:38:47.866Z,7.10
2018-03-26T17:41:13.862Z,7.10
2018-03-26T17:43:40.558Z,7.40
2018-03-26T17:46:06.561Z,7.30
2018-03-26T17:48:32.558Z,7.30
2018-03-26T17:51:00.135Z,7.30
2018-03-26T17:53:26.125Z,7.30
2018-03-26T17:55:52.103Z,7.40
2018-03-26T17:58:18.049Z,7.30
2018-03-26T18:00:45.514Z,7.20
2018-03-26T18:03:11.539Z,7.10
2018-03-26T18:05:37.481Z,7.10
2018-03-26T18:08:03.457Z,7.10
2018-03-26T18:10:29.468Z,7.20
2018-03-26T18:12:56.182Z,7.20
2018-03-26T18:15:22.186Z,7.20
2018-03-26T18:17:48.154Z,7.20
2018-03-26T18:20:14.300Z,7.20
2018-03-26T18:22:40.266Z,7.00
2018-03-26T18:25:06.210Z,7.10
2018-03-26T18:27:32.924Z,7.00
2018-03-26T18:29:58.959Z,7.00
2018-03-26T18:32:24.938Z,7.00
2018-03-26T18:34:51.617Z,6.90
2018-03-26T18:37:17.605Z,6.90
2018-03-26T18:39:43.635Z,6.90
2018-03-26T18:42:09.610Z,7.00
2018-03-26T18:44:36.293Z,6.80
2018-03-26T18:47:02.287Z,6.80
2018-03-26T18:49:28.995Z,6.90
2018-03-26T18:51:54.965Z,6.90
2018-03-26T18:54:21.645Z,6.70
2018-03-26T18:56:47.657Z,6.70
2018-03-26T18:59:13.646Z,6.60
2018-03-26T19:01:39.614Z,6.60
2018-03-26T19:04:05.593Z,6.70
2018-03-26T19:06:31.564Z,6.70
2018-03-26T19:08:57.561Z,6.70
2018-03-26T19:11:23.555Z,6.60
2018-03-26T19:13:49.549Z,6.70
2018-03-26T19:16:15.517Z,6.70
2018-03-26T19:18:41.525Z,6.50
2018-03-26T19:21:07.452Z,6.60
2018-03-26T19:23:33.466Z,6.50
2018-03-26T19:25:59.431Z,6.50
2018-03-26T19:28:25.417Z,6.50
2018-03-26T19:30:52.109Z,6.50
2018-03-26T19:33:18.053Z,6.50
2018-03-26T19:35:44.030Z,6.60
2018-03-26T19:38:09.978Z,6.70
2018-03-26T19:40:35.957Z,6.70
2018-03-26T19:43:01.935Z,6.50
2018-03-26T19:45:27.973Z,6.50
2018-03-26T19:47:53.951Z,6.60
2018-03-26T19:50:20.645Z,6.50
2018-03-26T19:52:46.647Z,6.40
2018-03-26T19:55:13.321Z,6.30
2018-03-26T19:57:39.304Z,6.30
2018-03-26T20:00:06.017Z,6.40
2018-03-26T20:02:31.984Z,6.40
2018-03-26T20:04:57.955Z,6.40
2018-03-26T20:07:23.934Z,6.40
2018-03-26T20:09:49.912Z,6.30
2018-03-26T20:12:16.624Z,6.40
2018-03-26T20:14:42.602Z,6.40
2018-03-26T20:17:09.301Z,6.30
2018-03-26T20:19:35.282Z,6.30
2018-03-26T20:22:01.289Z,6.30
2018-03-26T20:24:27.266Z,6.30
2018-03-26T20:26:53.948Z,6.40
2018-03-26T20:29:19.916Z,6.30
2018-03-26T20:31:45.891Z,6.30
2018-03-26T20:34:12.618Z,6.20
2018-03-26T20:36:38.609Z,6.20
2018-03-26T20:39:04.591Z,6.20
2018-03-26T20:41:30.566Z,6.20
2018-03-26T20:43:57.175Z,6.20
2018-03-26T20:46:23.129Z,6.10
2018-03-26T20:48:49.804Z,6.00
2018-03-26T20:51:15.764Z,5.90
2018-03-26T20:53:41.764Z,5.90
2018-03-26T20:56:07.747Z,5.80
2018-03-26T20:58:33.742Z,5.80
2018-03-26T21:01:00.482Z,5.70
2018-03-26T21:03:27.258Z,5.60
2018-03-26T21:05:53.208Z,5.50
2018-03-26T21:08:19.199Z,5.60
2018-03-26T21:10:45.193Z,5.60
2018-03-26T21:13:11.148Z,5.60
2018-03-26T21:15:37.133Z,5.50
2018-03-26T21:18:03.133Z,5.50
2018-03-26T21:20:29.157Z,5.40
2018-03-26T21:22:55.113Z,5.40
2018-03-26T21:25:21.082Z,5.40
2018-03-26T21:27:47.032Z,5.40
2018-03-26T21:30:13.025Z,5.40
2018-03-26T21:32:39.718Z,5.30
2018-03-26T21:35:05.688Z,5.30
2018-03-26T21:37:31.632Z,5.30
2018-03-26T21:39:57.642Z,5.30
2018-03-26T21:42:23.632Z,5.40
2018-03-26T21:44:50.357Z,5.50
2018-03-26T21:47:16.347Z,5.50
2018-03-26T21:49:42.293Z,5.50
2018-03-26T21:52:08.325Z,5.40
2018-03-26T21:54:34.278Z,5.40
2018-03-26T21:57:00.264Z,5.50
2018-03-26T21:59:26.982Z,5.50
2018-03-26T22:01:52.990Z,5.50
2018-03-26T22:04:18.929Z,5.40
2018-03-26T22:06:44.913Z,5.40
2018-03-26T22:09:10.864Z,5.40
2018-03-26T22:11:37.578Z,5.10
2018-03-26T22:14:03.528Z,5.10
2018-03-26T22:16:29.538Z,5.00
2018-03-26T22:18:55.510Z,5.00
2018-03-26T22:21:21.490Z,4.90
2018-03-26T22:23:47.471Z,4.80
2018-03-26T22:26:13.466Z,4.80
2018-03-26T22:28:39.450Z,4.90
2018-03-26T22:31:05.429Z,4.90
2018-03-26T22:33:31.406Z,4.80
2018-03-26T22:35:57.388Z,4.90
2018-03-26T22:38:23.389Z,5.00
2018-03-26T22:40:49.358Z,5.00
2018-03-26T22:43:16.046Z,4.90
2018-03-26T22:45:42.021Z,4.90
2018-03-26T22:48:08.747Z,4.90
2018-03-26T22:50:34.716Z,4.90
2018-03-26T22:53:01.439Z,5.20
2018-03-26T22:55:27.459Z,5.20
2018-03-26T22:57:53.408Z,5.20
2018-03-26T23:00:19.423Z,5.20
2018-03-26T23:02:46.113Z,5.30
2018-03-26T23:05:12.072Z,5.30
2018-03-26T23:07:38.813Z,5.20
2018-03-26T23:10:05.530Z,5.10
2018-03-26T23:12:31.513Z,5.10
2018-03-26T23:14:58.234Z,5.20
2018-03-26T23:17:24.213Z,5.20
2018-03-26T23:19:51.000Z,5.30
2018-03-26T23:22:29.553Z,5.30
2018-03-26T23:24:55.505Z,5.20
2018-03-26T23:27:21.489Z,5.20
2018-03-26T23:29:47.446Z,5.30
2018-03-26T23:32:13.442Z,5.30
2018-03-26T23:34:40.154Z,5.40
2018-03-26T23:37:06.105Z,5.40
2018-03-26T23:39:32.109Z,5.40
2018-03-26T23:41:58.086Z,5.40
2018-03-26T23:44:24.047Z,5.40
2018-03-26T23:46:50.042Z,5.30
2018-03-26T23:49:16.005Z,5.40
2018-03-26T23:51:42.698Z,5.40
2018-03-26T23:54:08.678Z,5.40
2018-03-26T23:56:34.620Z,5.40
2018-03-26T23:59:00.629Z,5.40
